Ponca, Nebraska
Current Conditions -  °F | °C
As of 9:29 PM on Saturday 22 Nov 2014 (Local Time) from KSUX Reporting Station
Overcast Overcast  
Wind Chill: 53°   Ceiling: 1600
Heat Index: 53°   Visibility: 10mi
Dew Point: 49°   Wind: 15mph
Humidity: 86%   Direction: 190°S
Pressure: 29.52"   Gusts: 21mph
Location:  42.56°N, 96.71°W
Report Text: KSUX 230329Z 19013G18KT 10SM OVC016 12/09 A2952 RMK AO2 T01170094
Loading
Personal Weather Stations






























Interactive Weather Map New forecast layout! Learn more

10-Day Weather Forecast

Advertisements
Track Severe Weather on mobile